Decoded Metar for KRWF (REDWOOD FALL in MN, USA) (IATA:RWF) | Meteo·Mobile Aviation Weather
aviador You're here:

KRWF Decoded Metar

REDWOOD FALL in MN, USA
Report Time2018-09-19 14:14:00
UTC Time2018-09-19 14:27:02
Flight Rules lifr LIFR
Wind020° at 04 kt
W.Decomp.*RWY 05: 3.3 kt HW 2.2 kt LCW
RWY 30: 1.0 kt HW 3.9 kt RCW
W.Rank020° ranks 33
Current wind is below 020° avg. (6.2)
Visibility2816 m
Phenomena:Rain
Mist
Clouds:Overcast 003 Hf
Ceiling300 ft
Temp16°C (ISA +3)
Dew Point16°C (100% RH)
QNH1017 hPa
Density Alt1,490 ft
Elevation1,020 ft
Report Wrong Elevation
Raw Report
KRWF 191414Z AUTO 02004KT 1 3/4SM RA BR OVC003 16/16 A3002 RMK AO2
P0001 T01610161=

Extra information for KRWF:More info

Metar Taf Metar & Taf Last 4 Metars F.Rules Stats Wind Profile Meteogram Temp Stats Airport Information Weather charts Add Link Nearby VenuesMetar ALERT Operation Metar Decoded Social comments

AIRNAV info for KRWF